sensor_id;sensor_type;location;lat;lon;timestamp;pressure;altitude;pressure_sealevel;temperature;humidity
10392;BME280;5242;49.244;6.774;2023-03-14T00:00:55;97753.56;;;9.29;nan
10392;BME280;5242;49.244;6.774;2023-03-14T00:08:47;97732.63;;;9.33;nan
10392;BME280;5242;49.244;6.774;2023-03-14T00:16:39;97734.13;;;9.38;nan
10392;BME280;5242;49.244;6.774;2023-03-14T00:24:31;97734.94;;;9.42;nan
10392;BME280;5242;49.244;6.774;2023-03-14T00:32:23;97741.53;;;9.45;nan
10392;BME280;5242;49.244;6.774;2023-03-14T00:40:15;97753.94;;;9.42;nan
10392;BME280;5242;49.244;6.774;2023-03-14T00:48:07;97755.50;;;9.40;nan
10392;BME280;5242;49.244;6.774;2023-03-14T00:56:02;97769.47;;;9.38;nan
10392;BME280;5242;49.244;6.774;2023-03-14T01:03:55;97762.09;;;9.31;nan
10392;BME280;5242;49.244;6.774;2023-03-14T01:11:47;97772.97;;;9.24;nan
10392;BME280;5242;49.244;6.774;2023-03-14T01:19:40;97774.50;;;9.22;nan
10392;BME280;5242;49.244;6.774;2023-03-14T01:27:32;97769.84;;;9.22;nan
10392;BME280;5242;49.244;6.774;2023-03-14T01:35:24;97753.94;;;9.28;nan
10392;BME280;5242;49.244;6.774;2023-03-14T01:43:18;97738.03;;;9.37;nan
10392;BME280;5242;49.244;6.774;2023-03-14T01:51:13;97725.59;;;9.43;nan
10392;BME280;5242;49.244;6.774;2023-03-14T01:59:07;97698.44;;;9.40;nan
10392;BME280;5242;49.244;6.774;2023-03-14T02:15:02;97684.13;;;9.28;nan
10392;BME280;5242;49.244;6.774;2023-03-14T02:22:54;97661.22;;;9.26;nan
10392;BME280;5242;49.244;6.774;2023-03-14T02:30:46;97645.69;;;9.26;nan
10392;BME280;5242;49.244;6.774;2023-03-14T02:38:50;97644.13;;;9.29;nan
10392;BME280;5242;49.244;6.774;2023-03-14T02:46:46;97631.31;;;9.29;nan
10392;BME280;5242;49.244;6.774;2023-03-14T02:54:38;97629.41;;;9.16;nan
10392;BME280;5242;49.244;6.774;2023-03-14T03:02:29;97620.91;;;8.96;nan
10392;BME280;5242;49.244;6.774;2023-03-14T03:10:21;97612.38;;;8.83;nan
10392;BME280;5242;49.244;6.774;2023-03-14T03:18:13;97590.66;;;8.72;nan
10392;BME280;5242;49.244;6.774;2023-03-14T03:26:05;97588.69;;;8.69;nan
10392;BME280;5242;49.244;6.774;2023-03-14T03:33:57;97580.19;;;8.67;nan
10392;BME280;5242;49.244;6.774;2023-03-14T03:41:49;97574.78;;;8.67;nan
10392;BME280;5242;49.244;6.774;2023-03-14T03:49:41;97580.97;;;8.67;nan
10392;BME280;5242;49.244;6.774;2023-03-14T03:57:32;97567.38;;;8.64;nan
10392;BME280;5242;49.244;6.774;2023-03-14T04:05:24;97571.28;;;8.63;nan
10392;BME280;5242;49.244;6.774;2023-03-14T04:13:16;97580.19;;;8.67;nan
10392;BME280;5242;49.244;6.774;2023-03-14T04:21:08;97559.63;;;8.66;nan
10392;BME280;5242;49.244;6.774;2023-03-14T04:29:00;97559.25;;;8.67;nan
10392;BME280;5242;49.244;6.774;2023-03-14T04:36:51;97546.84;;;8.63;nan
10392;BME280;5242;49.244;6.774;2023-03-14T04:44:43;97544.16;;;8.59;nan
10392;BME280;5242;49.244;6.774;2023-03-14T04:52:35;97537.94;;;8.59;nan
10392;BME280;5242;49.244;6.774;2023-03-14T05:00:27;97525.13;;;8.56;nan
10392;BME280;5242;49.244;6.774;2023-03-14T05:08:19;97517.41;;;8.54;nan
10392;BME280;5242;49.244;6.774;2023-03-14T05:16:11;97495.31;;;8.52;nan
10392;BME280;5242;49.244;6.774;2023-03-14T05:24:03;97490.28;;;8.47;nan
10392;BME280;5242;49.244;6.774;2023-03-14T05:31:55;97487.56;;;8.43;nan
10392;BME280;5242;49.244;6.774;2023-03-14T05:39:47;97498.03;;;8.41;nan
10392;BME280;5242;49.244;6.774;2023-03-14T05:47:38;97486.78;;;8.43;nan
10392;BME280;5242;49.244;6.774;2023-03-14T05:55:30;97476.69;;;8.43;nan
10392;BME280;5242;49.244;6.774;2023-03-14T06:03:22;97483.69;;;8.48;nan
10392;BME280;5242;49.244;6.774;2023-03-14T06:11:14;97490.63;;;8.63;nan
10392;BME280;5242;49.244;6.774;2023-03-14T06:19:05;97486.38;;;8.73;nan
10392;BME280;5242;49.244;6.774;2023-03-14T06:26:57;97480.56;;;8.75;nan
10392;BME280;5242;49.244;6.774;2023-03-14T06:34:49;97469.66;;;8.82;nan
10392;BME280;5242;49.244;6.774;2023-03-14T06:42:41;97482.84;;;8.90;nan
10392;BME280;5242;49.244;6.774;2023-03-14T06:50:33;97477.75;;;9.00;nan
10392;BME280;5242;49.244;6.774;2023-03-14T06:58:24;97487.47;;;9.08;nan
10392;BME280;5242;49.244;6.774;2023-03-14T07:06:16;97502.94;;;9.18;nan
10392;BME280;5242;49.244;6.774;2023-03-14T07:14:09;97480.00;;;9.33;nan
10392;BME280;5242;49.244;6.774;2023-03-14T07:22:01;97493.03;;;9.67;nan
10392;BME280;5242;49.244;6.774;2023-03-14T07:29:52;97494.53;;;10.38;nan
10392;BME280;5242;49.244;6.774;2023-03-14T07:37:44;97480.25;;;11.37;nan
10392;BME280;5242;49.244;6.774;2023-03-14T07:45:36;97474.78;;;11.99;nan
10392;BME280;5242;49.244;6.774;2023-03-14T07:53:33;97480.25;;;11.41;nan
10392;BME280;5242;49.244;6.774;2023-03-14T08:01:25;97484.59;;;11.00;nan
10392;BME280;5242;49.244;6.774;2023-03-14T08:09:16;97488.25;;;10.86;nan
10392;BME280;5242;49.244;6.774;2023-03-14T08:17:08;97491.38;;;10.85;nan
10392;BME280;5242;49.244;6.774;2023-03-14T08:25:00;97496.00;;;10.88;nan
10392;BME280;5242;49.244;6.774;2023-03-14T08:32:52;97509.16;;;10.97;nan
10392;BME280;5242;49.244;6.774;2023-03-14T08:40:44;97519.09;;;10.73;nan
10392;BME280;5242;49.244;6.774;2023-03-14T08:48:36;97517.78;;;10.47;nan
10392;BME280;5242;49.244;6.774;2023-03-14T08:56:27;97515.59;;;10.23;nan
10392;BME280;5242;49.244;6.774;2023-03-14T09:04:19;97523.44;;;10.07;nan
10392;BME280;5242;49.244;6.774;2023-03-14T09:12:12;97520.81;;;10.00;nan
10392;BME280;5242;49.244;6.774;2023-03-14T09:20:04;97539.84;;;9.96;nan
10392;BME280;5242;49.244;6.774;2023-03-14T09:27:58;97543.38;;;9.90;nan
10392;BME280;5242;49.244;6.774;2023-03-14T09:35:50;97585.69;;;9.91;nan
10392;BME280;5242;49.244;6.774;2023-03-14T09:43:43;97631.84;;;10.09;nan
10392;BME280;5242;49.244;6.774;2023-03-14T09:51:37;97669.22;;;9.90;nan
10392;BME280;5242;49.244;6.774;2023-03-14T09:59:29;97703.91;;;9.36;nan
10392;BME280;5242;49.244;6.774;2023-03-14T10:07:31;97741.09;;;9.00;nan
10392;BME280;5242;49.244;6.774;2023-03-14T10:15:32;97773.66;;;8.82;nan
10392;BME280;5242;49.244;6.774;2023-03-14T10:23:27;97801.53;;;8.64;nan
10392;BME280;5242;49.244;6.774;2023-03-14T10:31:25;97837.56;;;8.58;nan
10392;BME280;5242;49.244;6.774;2023-03-14T10:47:17;97900.00;;;8.65;nan
10392;BME280;5242;49.244;6.774;2023-03-14T11:03:11;97948.16;;;14.40;nan
10392;BME280;5242;49.244;6.774;2023-03-14T11:19:33;98014.84;;;13.72;nan
10392;BME280;5242;49.244;6.774;2023-03-14T11:27:41;98049.38;;;12.82;nan
10392;BME280;5242;49.244;6.774;2023-03-14T11:35:38;98070.53;;;14.16;nan
10392;BME280;5242;49.244;6.774;2023-03-14T11:43:36;98076.97;;;16.26;nan
10392;BME280;5242;49.244;6.774;2023-03-14T11:51:44;98092.59;;;15.73;nan
10392;BME280;5242;49.244;6.774;2023-03-14T11:59:49;98124.69;;;15.76;nan
10392;BME280;5242;49.244;6.774;2023-03-14T12:08:07;98149.03;;;13.57;nan
10392;BME280;5242;49.244;6.774;2023-03-14T12:16:31;98194.69;;;11.46;nan
10392;BME280;5242;49.244;6.774;2023-03-14T12:24:30;98209.97;;;12.50;nan
10392;BME280;5242;49.244;6.774;2023-03-14T12:32:25;98203.56;;;13.34;nan
10392;BME280;5242;49.244;6.774;2023-03-14T12:40:21;98217.50;;;15.11;nan
10392;BME280;5242;49.244;6.774;2023-03-14T12:48:24;98233.75;;;15.49;nan
10392;BME280;5242;49.244;6.774;2023-03-14T13:04:10;98243.63;;;16.13;nan
10392;BME280;5242;49.244;6.774;2023-03-14T13:12:08;98250.63;;;17.59;nan
10392;BME280;5242;49.244;6.774;2023-03-14T13:20:05;98271.38;;;14.67;nan
10392;BME280;5242;49.244;6.774;2023-03-14T13:28:02;98294.53;;;12.68;nan
10392;BME280;5242;49.244;6.774;2023-03-14T13:36:00;98296.31;;;12.08;nan
10392;BME280;5242;49.244;6.774;2023-03-14T13:52:22;98354.78;;;11.53;nan
10392;BME280;5242;49.244;6.774;2023-03-14T14:00:26;98355.88;;;11.16;nan
10392;BME280;5242;49.244;6.774;2023-03-14T14:08:18;98371.44;;;11.16;nan
10392;BME280;5242;49.244;6.774;2023-03-14T14:16:10;98397.13;;;11.07;nan
10392;BME280;5242;49.244;6.774;2023-03-14T14:24:03;98405.19;;;10.82;nan
10392;BME280;5242;49.244;6.774;2023-03-14T14:32:01;98415.22;;;10.68;nan
10392;BME280;5242;49.244;6.774;2023-03-14T14:39:56;98437.91;;;10.93;nan
10392;BME280;5242;49.244;6.774;2023-03-14T14:47:58;98448.97;;;11.36;nan
10392;BME280;5242;49.244;6.774;2023-03-14T14:55:59;98456.97;;;10.93;nan
10392;BME280;5242;49.244;6.774;2023-03-14T15:03:54;98466.41;;;10.48;nan
10392;BME280;5242;49.244;6.774;2023-03-14T15:11:47;98467.88;;;10.31;nan
10392;BME280;5242;49.244;6.774;2023-03-14T15:19:38;98475.53;;;10.21;nan
10392;BME280;5242;49.244;6.774;2023-03-14T15:27:31;98476.25;;;10.15;nan
10392;BME280;5242;49.244;6.774;2023-03-14T15:35:23;98492.47;;;10.04;nan
10392;BME280;5242;49.244;6.774;2023-03-14T15:43:15;98492.81;;;9.99;nan
10392;BME280;5242;49.244;6.774;2023-03-14T15:51:07;98506.56;;;9.72;nan
10392;BME280;5242;49.244;6.774;2023-03-14T15:58:59;98538.94;;;9.21;nan
10392;BME280;5242;49.244;6.774;2023-03-14T16:06:51;98540.91;;;8.93;nan
10392;BME280;5242;49.244;6.774;2023-03-14T16:14:43;98536.75;;;8.77;nan
10392;BME280;5242;49.244;6.774;2023-03-14T16:22:35;98541.88;;;8.55;nan
10392;BME280;5242;49.244;6.774;2023-03-14T16:30:27;98549.47;;;8.46;nan
10392;BME280;5242;49.244;6.774;2023-03-14T16:38:20;98555.03;;;8.53;nan
10392;BME280;5242;49.244;6.774;2023-03-14T16:46:14;98575.81;;;8.45;nan
10392;BME280;5242;49.244;6.774;2023-03-14T16:54:09;98584.69;;;8.23;nan
10392;BME280;5242;49.244;6.774;2023-03-14T17:02:01;98600.53;;;7.98;nan
10392;BME280;5242;49.244;6.774;2023-03-14T17:09:53;98630.00;;;7.80;nan
10392;BME280;5242;49.244;6.774;2023-03-14T17:17:45;98656.53;;;7.71;nan
10392;BME280;5242;49.244;6.774;2023-03-14T17:25:37;98666.34;;;7.24;nan
10392;BME280;5242;49.244;6.774;2023-03-14T17:33:29;98688.31;;;7.03;nan
10392;BME280;5242;49.244;6.774;2023-03-14T17:41:20;98722.88;;;6.94;nan
10392;BME280;5242;49.244;6.774;2023-03-14T17:49:13;98734.03;;;6.77;nan
10392;BME280;5242;49.244;6.774;2023-03-14T17:57:04;98762.00;;;6.52;nan
10392;BME280;5242;49.244;6.774;2023-03-14T18:04:56;98761.31;;;6.27;nan
10392;BME280;5242;49.244;6.774;2023-03-14T18:12:48;98766.28;;;6.13;nan
10392;BME280;5242;49.244;6.774;2023-03-14T18:20:40;98770.59;;;6.02;nan
10392;BME280;5242;49.244;6.774;2023-03-14T18:28:32;98778.16;;;5.72;nan
10392;BME280;5242;49.244;6.774;2023-03-14T18:36:24;98787.72;;;5.57;nan
10392;BME280;5242;49.244;6.774;2023-03-14T18:44:17;98807.00;;;5.55;nan
10392;BME280;5242;49.244;6.774;2023-03-14T18:52:09;98848.84;;;5.61;nan
10392;BME280;5242;49.244;6.774;2023-03-14T19:00:00;98915.75;;;5.31;nan
10392;BME280;5242;49.244;6.774;2023-03-14T19:07:52;98955.75;;;4.54;nan
10392;BME280;5242;49.244;6.774;2023-03-14T19:15:44;98989.81;;;3.99;nan
10392;BME280;5242;49.244;6.774;2023-03-14T19:23:37;99026.44;;;3.83;nan
10392;BME280;5242;49.244;6.774;2023-03-14T19:31:29;99040.38;;;3.85;nan
10392;BME280;5242;49.244;6.774;2023-03-14T19:39:22;99040.25;;;3.81;nan
10392;BME280;5242;49.244;6.774;2023-03-14T19:47:14;99059.75;;;3.69;nan
10392;BME280;5242;49.244;6.774;2023-03-14T19:55:06;99093.94;;;3.60;nan
10392;BME280;5242;49.244;6.774;2023-03-14T20:02:57;99115.66;;;3.55;nan
10392;BME280;5242;49.244;6.774;2023-03-14T20:10:49;99124.38;;;3.52;nan
10392;BME280;5242;49.244;6.774;2023-03-14T20:18:41;99106.94;;;3.41;nan
10392;BME280;5242;49.244;6.774;2023-03-14T20:26:33;99111.84;;;3.39;nan
10392;BME280;5242;49.244;6.774;2023-03-14T20:34:25;99123.25;;;3.36;nan
10392;BME280;5242;49.244;6.774;2023-03-14T20:42:17;99113.75;;;3.38;nan
10392;BME280;5242;49.244;6.774;2023-03-14T20:50:09;99129.09;;;3.20;nan
10392;BME280;5242;49.244;6.774;2023-03-14T20:58:01;99171.03;;;3.21;nan
10392;BME280;5242;49.244;6.774;2023-03-14T21:05:53;99217.81;;;3.43;nan
10392;BME280;5242;49.244;6.774;2023-03-14T21:13:45;99237.13;;;3.45;nan
10392;BME280;5242;49.244;6.774;2023-03-14T21:21:37;99274.50;;;3.38;nan
10392;BME280;5242;49.244;6.774;2023-03-14T21:29:28;99279.69;;;3.34;nan
10392;BME280;5242;49.244;6.774;2023-03-14T21:37:20;99286.59;;;3.18;nan
10392;BME280;5242;49.244;6.774;2023-03-14T21:45:12;99302.19;;;2.76;nan
10392;BME280;5242;49.244;6.774;2023-03-14T21:53:07;99305.84;;;2.57;nan
10392;BME280;5242;49.244;6.774;2023-03-14T22:01:04;99318.63;;;2.52;nan
10392;BME280;5242;49.244;6.774;2023-03-14T22:08:57;99343.97;;;2.37;nan
10392;BME280;5242;49.244;6.774;2023-03-14T22:16:52;99342.84;;;2.02;nan
10392;BME280;5242;49.244;6.774;2023-03-14T22:24:45;99361.88;;;1.78;nan
10392;BME280;5242;49.244;6.774;2023-03-14T22:32:36;99368.34;;;1.49;nan
10392;BME280;5242;49.244;6.774;2023-03-14T22:40:28;99379.72;;;1.27;nan
10392;BME280;5242;49.244;6.774;2023-03-14T22:48:20;99388.03;;;1.12;nan
10392;BME280;5242;49.244;6.774;2023-03-14T22:56:12;99403.00;;;0.99;nan
10392;BME280;5242;49.244;6.774;2023-03-14T23:04:04;99412.50;;;0.91;nan
10392;BME280;5242;49.244;6.774;2023-03-14T23:11:56;99416.47;;;0.94;nan
10392;BME280;5242;49.244;6.774;2023-03-14T23:19:48;99431.25;;;0.91;nan
10392;BME280;5242;49.244;6.774;2023-03-14T23:27:39;99444.31;;;0.98;nan
10392;BME280;5242;49.244;6.774;2023-03-14T23:35:36;99459.53;;;1.02;nan
10392;BME280;5242;49.244;6.774;2023-03-14T23:43:28;99465.63;;;1.08;nan
10392;BME280;5242;49.244;6.774;2023-03-14T23:51:20;99462.41;;;1.06;nan
10392;BME280;5242;49.244;6.774;2023-03-14T23:59:12;99459.53;;;1.02;nan
